Time;durP1;ratioP1;P1;durP2;ratioP2;P2;SDS_P1;SDS_P2;PMS_P1;PMS_P2;Temp;Humidity;BMP_temperature;BMP_pressure;BME280_temperature;BME280_humidity;BME280_pressure;Samples;Min_cycle;Max_cycle;Signal;HPM_P1;HPM_P2
2023/11/12 00:02:03;;;;;;;0.90;0.40;;;;;;;;;;5019861;28;20365;-59
2023/11/12 00:04:28;;;;;;;0.80;0.40;;;;;;;;;;5011005;28;20288;-58
2023/11/12 00:06:54;;;;;;;1.60;0.40;;;;;;;;;;5020729;28;20029;-58
2023/11/12 00:09:19;;;;;;;0.90;0.30;;;;;;;;;;5017434;28;20272;-57
2023/11/12 00:11:44;;;;;;;0.83;0.47;;;;;;;;;;5025057;28;20280;-58
2023/11/12 00:14:11;;;;;;;0.80;0.30;;;;;;;;;;5024188;28;20821;-59
2023/11/12 00:16:36;;;;;;;0.47;0.22;;;;;;;;;;5024712;28;20112;-58
2023/11/12 00:19:04;;;;;;;1.08;0.40;;;;;;;;;;5020878;28;20036;-58
2023/11/12 00:21:29;;;;;;;1.15;0.40;;;;;;;;;;5024702;28;20041;-58
2023/11/12 00:23:54;;;;;;;0.50;0.25;;;;;;;;;;5025168;28;20127;-58
2023/11/12 00:26:22;;;;;;;1.45;0.50;;;;;;;;;;5023555;28;20036;-58
2023/11/12 00:28:47;;;;;;;1.08;0.40;;;;;;;;;;5025604;28;20112;-58
2023/11/12 00:31:12;;;;;;;0.47;0.30;;;;;;;;;;5024243;28;20041;-57
2023/11/12 00:33:38;;;;;;;0.68;0.30;;;;;;;;;;5025390;28;20511;-56
2023/11/12 00:36:04;;;;;;;0.90;0.30;;;;;;;;;;5024542;28;20029;-56
2023/11/12 00:38:29;;;;;;;0.70;0.30;;;;;;;;;;5023962;28;20033;-57
2023/11/12 00:40:54;;;;;;;0.55;0.30;;;;;;;;;;5024813;28;20536;-57
2023/11/12 00:43:26;;;;;;;1.17;0.30;;;;;;;;;;5005760;28;20034;-57
2023/11/12 00:46:01;;;;;;;1.25;0.47;;;;;;;;;;5013446;28;20276;-57
2023/11/12 00:48:27;;;;;;;0.90;0.40;;;;;;;;;;5014611;28;20054;-57
2023/11/12 00:50:52;;;;;;;0.88;0.35;;;;;;;;;;5024305;28;20033;-57
2023/11/12 00:53:18;;;;;;;1.17;0.40;;;;;;;;;;5026176;28;20095;-58
2023/11/12 00:55:43;;;;;;;1.13;0.50;;;;;;;;;;5023845;28;20670;-58
2023/11/12 00:58:08;;;;;;;0.98;0.30;;;;;;;;;;5028722;28;20388;-57
2023/11/12 01:03:33;;;;;;;1.27;0.40;;;;;;;;;;1922784;23;20089;-58
2023/11/12 01:05:59;;;;;;;1.25;0.30;;;;;;;;;;4982905;23;20440;-54
2023/11/12 01:08:24;;;;;;;1.10;0.35;;;;;;;;;;4978512;23;20070;-54
2023/11/12 01:10:53;;;;;;;0.93;0.50;;;;;;;;;;4990947;23;20051;-58
2023/11/12 01:13:18;;;;;;;0.57;0.20;;;;;;;;;;4963828;28;20370;-57
2023/11/12 01:15:43;;;;;;;1.17;0.43;;;;;;;;;;4976032;28;20528;-58
2023/11/12 01:18:08;;;;;;;0.80;0.38;;;;;;;;;;4957493;28;20573;-58
2023/11/12 01:20:34;;;;;;;0.77;0.30;;;;;;;;;;4952256;28;20047;-58
2023/11/12 01:22:59;;;;;;;1.10;0.40;;;;;;;;;;5012936;23;20038;-80
2023/11/12 01:25:25;;;;;;;0.77;0.30;;;;;;;;;;4975992;28;20035;-80
2023/11/12 01:27:51;;;;;;;0.60;0.30;;;;;;;;;;4987024;28;20265;-79
2023/11/12 01:30:17;;;;;;;1.07;0.30;;;;;;;;;;4986827;28;20018;-80
2023/11/12 01:32:43;;;;;;;0.95;0.40;;;;;;;;;;4984021;28;20294;-80
2023/11/12 01:35:14;;;;;;;1.15;0.47;;;;;;;;;;4993708;28;20079;-81
2023/11/12 01:37:41;;;;;;;1.17;0.40;;;;;;;;;;4992082;28;20042;-81
2023/11/12 01:40:07;;;;;;;0.75;0.30;;;;;;;;;;4982439;28;20015;-81
2023/11/12 01:42:34;;;;;;;0.77;0.32;;;;;;;;;;4981635;28;20107;-78
2023/11/12 01:44:59;;;;;;;0.80;0.30;;;;;;;;;;4985131;28;20469;-79
2023/11/12 01:47:25;;;;;;;0.70;0.43;;;;;;;;;;4990612;28;20026;-78
2023/11/12 01:49:54;;;;;;;0.80;0.40;;;;;;;;;;4988442;28;20042;-78
2023/11/12 01:52:19;;;;;;;0.98;0.28;;;;;;;;;;4987289;28;20039;-78
2023/11/12 01:54:45;;;;;;;1.00;0.30;;;;;;;;;;4987270;28;20037;-78
2023/11/12 01:57:10;;;;;;;0.85;0.40;;;;;;;;;;4974586;28;20039;-78
2023/11/12 01:59:36;;;;;;;0.83;0.30;;;;;;;;;;4985427;28;20141;-78
2023/11/12 02:02:02;;;;;;;0.65;0.30;;;;;;;;;;4980679;28;20305;-78
2023/11/12 02:04:27;;;;;;;0.60;0.30;;;;;;;;;;4980488;28;20106;-78
2023/11/12 02:06:52;;;;;;;1.17;0.40;;;;;;;;;;4982192;28;20144;-79
2023/11/12 02:09:18;;;;;;;0.80;0.40;;;;;;;;;;4988350;28;20555;-79
2023/11/12 02:11:43;;;;;;;0.70;0.30;;;;;;;;;;4973260;28;20713;-78
2023/11/12 02:14:08;;;;;;;0.93;0.30;;;;;;;;;;4977497;28;20518;-79
2023/11/12 02:16:34;;;;;;;0.73;0.30;;;;;;;;;;4981328;28;20057;-78
2023/11/12 02:19:00;;;;;;;0.98;0.30;;;;;;;;;;4992035;28;20050;-77
2023/11/12 02:21:26;;;;;;;0.80;0.30;;;;;;;;;;4984938;28;20379;-76
2023/11/12 02:23:52;;;;;;;0.63;0.30;;;;;;;;;;4980657;28;20118;-79
2023/11/12 02:26:18;;;;;;;0.52;0.30;;;;;;;;;;4968969;28;20143;-77
2023/11/12 02:28:44;;;;;;;0.65;0.30;;;;;;;;;;4990761;28;20030;-78
2023/11/12 02:31:09;;;;;;;0.68;0.28;;;;;;;;;;4991643;28;20038;-78
2023/11/12 02:33:34;;;;;;;0.88;0.45;;;;;;;;;;4991849;28;20030;-78
2023/11/12 02:35:59;;;;;;;0.70;0.50;;;;;;;;;;4982132;28;20039;-79
2023/11/12 02:38:25;;;;;;;1.27;0.55;;;;;;;;;;4977064;28;20092;-78
2023/11/12 02:40:50;;;;;;;0.50;0.22;;;;;;;;;;4990834;28;20422;-77
2023/11/12 02:43:17;;;;;;;1.50;0.30;;;;;;;;;;4973232;28;20054;-77
2023/11/12 02:45:43;;;;;;;0.60;0.38;;;;;;;;;;4980244;28;20047;-78
2023/11/12 02:48:08;;;;;;;0.55;0.32;;;;;;;;;;4988222;28;20050;-78
2023/11/12 02:50:35;;;;;;;0.60;0.38;;;;;;;;;;4974219;28;20045;-78
2023/11/12 02:53:01;;;;;;;0.68;0.30;;;;;;;;;;4986079;28;20148;-77
2023/11/12 02:55:32;;;;;;;0.82;0.40;;;;;;;;;;4987104;28;20042;-78
2023/11/12 02:57:58;;;;;;;0.68;0.38;;;;;;;;;;4986295;28;20613;-78
2023/11/12 03:00:27;;;;;;;0.55;0.38;;;;;;;;;;4989407;28;20042;-78
2023/11/12 03:02:53;;;;;;;0.68;0.38;;;;;;;;;;4978789;28;20042;-78
2023/11/12 03:05:19;;;;;;;0.40;0.30;;;;;;;;;;4966823;28;20113;-78
2023/11/12 03:07:44;;;;;;;0.77;0.30;;;;;;;;;;4972015;28;20482;-78
2023/11/12 03:10:09;;;;;;;0.57;0.32;;;;;;;;;;4980730;28;20038;-78
2023/11/12 03:12:36;;;;;;;0.60;0.30;;;;;;;;;;4985745;28;20050;-78
2023/11/12 03:15:04;;;;;;;0.93;0.40;;;;;;;;;;4968615;28;20125;-78
2023/11/12 03:17:29;;;;;;;0.73;0.40;;;;;;;;;;4989154;28;20038;-78
2023/11/12 03:19:54;;;;;;;0.45;0.30;;;;;;;;;;4973548;28;20105;-78
2023/11/12 03:22:22;;;;;;;0.95;0.40;;;;;;;;;;4981777;28;20118;-78
2023/11/12 03:24:48;;;;;;;0.63;0.20;;;;;;;;;;4985604;28;20510;-77
2023/11/12 03:27:13;;;;;;;0.80;0.35;;;;;;;;;;4980511;28;20041;-78
2023/11/12 03:29:38;;;;;;;0.90;0.50;;;;;;;;;;4998002;28;20037;-77
2023/11/12 03:32:04;;;;;;;0.60;0.32;;;;;;;;;;4974120;28;20027;-77
2023/11/12 03:34:30;;;;;;;0.82;0.30;;;;;;;;;;4984514;28;20035;-78
2023/11/12 03:36:58;;;;;;;0.73;0.40;;;;;;;;;;4976737;28;20045;-78
2023/11/12 03:39:23;;;;;;;0.80;0.40;;;;;;;;;;4987313;28;20113;-78
2023/11/12 03:41:48;;;;;;;0.73;0.40;;;;;;;;;;4976900;28;20483;-78
2023/11/12 03:44:14;;;;;;;0.60;0.30;;;;;;;;;;4964934;28;20457;-78
2023/11/12 03:46:40;;;;;;;1.02;0.40;;;;;;;;;;5000054;28;20080;-78
2023/11/12 03:49:06;;;;;;;0.98;0.40;;;;;;;;;;4988740;28;20443;-78
2023/11/12 03:51:32;;;;;;;1.35;0.40;;;;;;;;;;4988627;28;20045;-78
2023/11/12 03:54:01;;;;;;;0.98;0.43;;;;;;;;;;4987646;28;20030;-78
2023/11/12 03:56:26;;;;;;;1.13;0.30;;;;;;;;;;4984477;28;20434;-78
2023/11/12 03:58:51;;;;;;;0.73;0.30;;;;;;;;;;4984868;28;20042;-78
2023/11/12 04:01:16;;;;;;;0.93;0.50;;;;;;;;;;4970556;28;20128;-78
2023/11/12 04:03:42;;;;;;;0.60;0.30;;;;;;;;;;4979177;28;20049;-78
2023/11/12 04:06:07;;;;;;;0.60;0.33;;;;;;;;;;4984615;28;20042;-78
2023/11/12 04:08:32;;;;;;;0.80;0.50;;;;;;;;;;4987739;28;20440;-77
2023/11/12 04:10:58;;;;;;;0.75;0.40;;;;;;;;;;4973462;28;20046;-78
2023/11/12 04:13:23;;;;;;;0.77;0.40;;;;;;;;;;4989640;28;20108;-78
2023/11/12 04:15:48;;;;;;;1.03;0.40;;;;;;;;;;4970378;28;20043;-79
2023/11/12 04:18:13;;;;;;;1.20;0.50;;;;;;;;;;4967763;28;20309;-78
2023/11/12 04:20:39;;;;;;;0.63;0.40;;;;;;;;;;4982198;28;20046;-78
2023/11/12 04:23:04;;;;;;;0.63;0.40;;;;;;;;;;4970345;28;20050;-78
2023/11/12 04:25:30;;;;;;;0.70;0.30;;;;;;;;;;4977311;28;20041;-78
2023/11/12 04:27:55;;;;;;;0.70;0.45;;;;;;;;;;4977300;28;20325;-78
2023/11/12 04:30:20;;;;;;;0.57;0.30;;;;;;;;;;4984637;28;20066;-79
2023/11/12 04:32:47;;;;;;;0.70;0.40;;;;;;;;;;4993516;28;20433;-79
2023/11/12 04:35:12;;;;;;;0.60;0.45;;;;;;;;;;4991639;28;20148;-78
2023/11/12 04:37:38;;;;;;;1.10;0.30;;;;;;;;;;4993181;28;20048;-78
2023/11/12 04:40:04;;;;;;;0.90;0.40;;;;;;;;;;4995265;28;20038;-78
2023/11/12 04:42:30;;;;;;;0.50;0.30;;;;;;;;;;4992452;28;20035;-78
2023/11/12 04:44:55;;;;;;;0.90;0.50;;;;;;;;;;4990633;28;20027;-78
2023/11/12 04:47:20;;;;;;;0.45;0.30;;;;;;;;;;5004746;28;20038;-77
2023/11/12 04:49:46;;;;;;;0.70;0.30;;;;;;;;;;5008641;28;20035;-77
2023/11/12 04:52:12;;;;;;;0.57;0.40;;;;;;;;;;5010342;28;20046;-76
2023/11/12 04:54:37;;;;;;;0.80;0.50;;;;;;;;;;5013458;28;20300;-78
2023/11/12 04:57:03;;;;;;;0.90;0.57;;;;;;;;;;4995198;28;20038;-78
2023/11/12 04:59:30;;;;;;;0.68;0.40;;;;;;;;;;4990144;28;20031;-78
2023/11/12 05:01:55;;;;;;;0.55;0.30;;;;;;;;;;4996163;28;20108;-78
2023/11/12 05:04:21;;;;;;;0.65;0.35;;;;;;;;;;4983630;28;20035;-78
2023/11/12 05:06:54;;;;;;;0.47;0.30;;;;;;;;;;4990266;28;20038;-78
2023/11/12 05:09:20;;;;;;;0.57;0.30;;;;;;;;;;4993892;28;20034;-78
2023/11/12 05:14:49;;;;;;;0.93;0.30;;;;;;;;;;4995624;28;20162;-77
2023/11/12 05:17:14;;;;;;;0.40;0.30;;;;;;;;;;4986791;28;20046;-78
2023/11/12 05:19:40;;;;;;;0.70;0.40;;;;;;;;;;4964023;28;20094;-78
2023/11/12 05:22:05;;;;;;;0.90;0.40;;;;;;;;;;4991233;28;20523;-77
2023/11/12 05:24:31;;;;;;;0.70;0.40;;;;;;;;;;4995089;28;20038;-79
2023/11/12 05:26:58;;;;;;;0.80;0.40;;;;;;;;;;4988814;28;20038;-80
2023/11/12 05:29:23;;;;;;;1.23;0.40;;;;;;;;;;4984886;28;20073;-79
2023/11/12 05:31:48;;;;;;;1.23;0.50;;;;;;;;;;4985063;28;20078;-82
2023/11/12 05:34:14;;;;;;;1.20;0.70;;;;;;;;;;4988200;28;20053;-81
2023/11/12 05:36:40;;;;;;;0.73;0.40;;;;;;;;;;4984014;28;20298;-84
2023/11/12 05:39:05;;;;;;;0.88;0.40;;;;;;;;;;4986248;28;20081;-81
2023/11/12 05:41:30;;;;;;;0.52;0.30;;;;;;;;;;5000621;28;20061;-80
2023/11/12 05:43:56;;;;;;;0.60;0.38;;;;;;;;;;4985357;28;20042;-76
2023/11/12 05:46:22;;;;;;;0.60;0.40;;;;;;;;;;4987139;28;20025;-80
2023/11/12 05:48:47;;;;;;;1.05;0.40;;;;;;;;;;4981212;28;20075;-82
2023/11/12 05:51:13;;;;;;;0.93;0.30;;;;;;;;;;4985458;28;20113;-79
2023/11/12 05:53:38;;;;;;;1.15;0.50;;;;;;;;;;4995310;28;20503;-79
2023/11/12 05:56:04;;;;;;;3.30;0.52;;;;;;;;;;4983267;28;20128;-83
2023/11/12 05:58:30;;;;;;;0.70;0.47;;;;;;;;;;4999683;28;20027;-83
2023/11/12 06:00:58;;;;;;;0.75;0.40;;;;;;;;;;4987404;28;20022;-88
2023/11/12 06:03:23;;;;;;;0.70;0.30;;;;;;;;;;4988064;28;20601;-81
2023/11/12 06:05:49;;;;;;;0.68;0.40;;;;;;;;;;4993802;28;20053;-77
2023/11/12 06:08:16;;;;;;;1.30;0.40;;;;;;;;;;4982117;28;20513;-77
2023/11/12 06:10:43;;;;;;;0.65;0.40;;;;;;;;;;4982018;28;20425;-77
2023/11/12 06:13:09;;;;;;;0.90;0.50;;;;;;;;;;4979408;28;20033;-75
2023/11/12 06:15:34;;;;;;;0.82;0.50;;;;;;;;;;4993989;28;20023;-76
2023/11/12 06:17:59;;;;;;;0.88;0.40;;;;;;;;;;4977657;28;20007;-75
2023/11/12 06:20:26;;;;;;;0.75;0.30;;;;;;;;;;4982473;28;20038;-76
2023/11/12 06:22:51;;;;;;;1.52;0.40;;;;;;;;;;4982817;28;20890;-77
2023/11/12 06:25:17;;;;;;;1.27;0.40;;;;;;;;;;4981199;28;20034;-79
2023/11/12 06:27:42;;;;;;;0.70;0.30;;;;;;;;;;4994287;28;20281;-80
2023/11/12 06:30:08;;;;;;;3.08;0.40;;;;;;;;;;4996696;28;20109;-81
2023/11/12 06:32:34;;;;;;;1.10;0.60;;;;;;;;;;4979059;28;20027;-80
2023/11/12 06:34:59;;;;;;;2.10;0.50;;;;;;;;;;4994904;28;20030;-81
2023/11/12 06:37:25;;;;;;;2.90;0.50;;;;;;;;;;4986419;28;20073;-82
2023/11/12 06:39:50;;;;;;;1.88;0.40;;;;;;;;;;5001527;28;20569;-82
2023/11/12 06:42:15;;;;;;;2.67;0.30;;;;;;;;;;4978529;28;20057;-82
2023/11/12 06:44:41;;;;;;;1.13;0.50;;;;;;;;;;4987358;28;20269;-81
2023/11/12 06:47:06;;;;;;;0.60;0.40;;;;;;;;;;4988077;28;20532;-82
2023/11/12 06:49:39;;;;;;;0.98;0.40;;;;;;;;;;5000379;28;20042;-78
2023/11/12 06:52:05;;;;;;;1.25;0.40;;;;;;;;;;4980824;28;20109;-86
2023/11/12 06:54:30;;;;;;;0.90;0.43;;;;;;;;;;5006205;28;20503;-84
2023/11/12 06:56:57;;;;;;;0.88;0.50;;;;;;;;;;4988854;28;20034;-83
2023/11/12 06:59:22;;;;;;;1.63;0.40;;;;;;;;;;4988681;28;20030;-84
2023/11/12 07:01:48;;;;;;;1.40;0.60;;;;;;;;;;4991217;28;20037;-82
2023/11/12 07:04:13;;;;;;;1.17;0.50;;;;;;;;;;4997498;28;20050;-81
2023/11/12 07:06:38;;;;;;;1.05;0.47;;;;;;;;;;4992094;28;20122;-82
2023/11/12 07:09:04;;;;;;;1.02;0.40;;;;;;;;;;4998695;28;20476;-76
2023/11/12 07:11:29;;;;;;;1.08;0.40;;;;;;;;;;4973533;28;20065;-76
2023/11/12 07:13:54;;;;;;;1.73;0.43;;;;;;;;;;4975166;28;20057;-77
2023/11/12 07:16:20;;;;;;;0.70;0.30;;;;;;;;;;4980132;28;20298;-77
2023/11/12 07:18:45;;;;;;;0.60;0.40;;;;;;;;;;4992538;28;20338;-77
2023/11/12 07:21:12;;;;;;;0.70;0.40;;;;;;;;;;4975009;28;20607;-78
2023/11/12 07:23:37;;;;;;;1.23;0.40;;;;;;;;;;4981332;28;20038;-77
2023/11/12 07:26:03;;;;;;;0.63;0.30;;;;;;;;;;4979077;28;20042;-77
2023/11/12 07:28:29;;;;;;;0.65;0.30;;;;;;;;;;4992143;28;20045;-76
2023/11/12 07:30:54;;;;;;;1.08;0.45;;;;;;;;;;4973037;28;20038;-78
2023/11/12 07:33:21;;;;;;;1.88;0.50;;;;;;;;;;4989399;28;20050;-77
2023/11/12 07:35:48;;;;;;;0.85;0.43;;;;;;;;;;4995085;28;20034;-86
2023/11/12 07:38:13;;;;;;;0.80;0.50;;;;;;;;;;4982022;28;20070;-79
2023/11/12 07:40:41;;;;;;;1.38;0.43;;;;;;;;;;4992261;28;20069;-79
2023/11/12 07:43:06;;;;;;;0.95;0.40;;;;;;;;;;4982835;28;20039;-79
2023/11/12 07:45:31;;;;;;;1.67;0.50;;;;;;;;;;4982684;28;20026;-78
2023/11/12 07:47:57;;;;;;;0.90;0.43;;;;;;;;;;4998510;28;20058;-81
2023/11/12 07:50:22;;;;;;;1.23;0.50;;;;;;;;;;4980439;28;20085;-81
2023/11/12 07:52:49;;;;;;;1.17;0.40;;;;;;;;;;4978663;28;20039;-79
2023/11/12 07:55:14;;;;;;;1.75;0.50;;;;;;;;;;4975317;28;20495;-79
2023/11/12 07:57:40;;;;;;;0.73;0.50;;;;;;;;;;4988052;28;20052;-80
2023/11/12 08:00:06;;;;;;;1.20;0.50;;;;;;;;;;4978962;28;20045;-79
2023/11/12 08:02:31;;;;;;;1.55;0.60;;;;;;;;;;4985372;28;20050;-80
2023/11/12 08:04:57;;;;;;;1.13;0.55;;;;;;;;;;4978094;28;20041;-81
2023/11/12 08:07:22;;;;;;;1.77;0.57;;;;;;;;;;4987577;28;20116;-80
2023/11/12 08:09:48;;;;;;;0.70;0.40;;;;;;;;;;4982049;28;20165;-79
2023/11/12 08:12:13;;;;;;;1.33;0.43;;;;;;;;;;4982521;28;20043;-78
2023/11/12 08:14:39;;;;;;;1.00;0.43;;;;;;;;;;4976390;28;20045;-78
2023/11/12 08:17:05;;;;;;;2.22;0.80;;;;;;;;;;4977365;28;20054;-79
2023/11/12 08:19:30;;;;;;;2.40;0.90;;;;;;;;;;4976771;28;20054;-80
2023/11/12 08:21:55;;;;;;;1.10;0.50;;;;;;;;;;4994665;28;20309;-82
2023/11/12 08:24:21;;;;;;;1.15;0.50;;;;;;;;;;4987142;28;20030;-81
2023/11/12 08:26:47;;;;;;;1.33;0.50;;;;;;;;;;4997336;28;20030;-82
2023/11/12 08:29:13;;;;;;;1.73;0.60;;;;;;;;;;4982741;28;20538;-81
2023/11/12 08:31:38;;;;;;;1.50;0.60;;;;;;;;;;4980025;28;20063;-77
2023/11/12 08:34:03;;;;;;;1.38;0.55;;;;;;;;;;4976092;28;20388;-77
2023/11/12 08:36:33;;;;;;;2.67;0.70;;;;;;;;;;4982238;28;20061;-77
2023/11/12 08:38:58;;;;;;;2.80;0.80;;;;;;;;;;4979860;28;20035;-79
2023/11/12 08:41:23;;;;;;;1.73;0.65;;;;;;;;;;4975924;28;20042;-78
2023/11/12 08:43:49;;;;;;;1.98;0.98;;;;;;;;;;4978108;28;20035;-78
2023/11/12 08:46:15;;;;;;;2.15;0.90;;;;;;;;;;4982490;28;20038;-80
2023/11/12 08:48:42;;;;;;;1.27;0.80;;;;;;;;;;4977550;28;20422;-78
2023/11/12 08:51:11;;;;;;;1.80;1.00;;;;;;;;;;4990776;28;20042;-86
2023/11/12 08:53:37;;;;;;;1.42;0.90;;;;;;;;;;4962006;28;20069;-81
2023/11/12 08:56:02;;;;;;;1.95;0.90;;;;;;;;;;4990309;28;20086;-78
2023/11/12 08:58:28;;;;;;;3.13;0.80;;;;;;;;;;4992322;28;20104;-78
2023/11/12 09:00:54;;;;;;;2.45;0.80;;;;;;;;;;4973223;28;20460;-83
2023/11/12 09:03:19;;;;;;;1.58;0.75;;;;;;;;;;4987260;28;20042;-81
2023/11/12 09:05:45;;;;;;;3.25;1.10;;;;;;;;;;4990524;28;20042;-81
2023/11/12 09:08:10;;;;;;;2.65;0.98;;;;;;;;;;4976906;28;20037;-77
2023/11/12 09:10:35;;;;;;;1.80;1.00;;;;;;;;;;4976859;28;20031;-78
2023/11/12 09:13:01;;;;;;;3.75;1.30;;;;;;;;;;4990657;28;20164;-78
2023/11/12 09:15:26;;;;;;;2.72;0.85;;;;;;;;;;4982463;28;20065;-76
2023/11/12 09:17:53;;;;;;;2.00;0.95;;;;;;;;;;4977918;28;20070;-76
2023/11/12 09:20:18;;;;;;;2.03;0.95;;;;;;;;;;4982269;28;20113;-77
2023/11/12 09:22:44;;;;;;;2.80;1.00;;;;;;;;;;4996219;28;20102;-83
2023/11/12 09:25:11;;;;;;;1.65;1.00;;;;;;;;;;4983043;28;20064;-81
2023/11/12 09:27:36;;;;;;;2.20;0.82;;;;;;;;;;4985703;28;20026;-83
2023/11/12 09:30:02;;;;;;;4.00;0.98;;;;;;;;;;4981189;28;20644;-80
2023/11/12 09:32:28;;;;;;;2.83;1.30;;;;;;;;;;4980857;28;20031;-78
2023/11/12 09:34:53;;;;;;;3.03;1.35;;;;;;;;;;4979027;28;20124;-80
2023/11/12 09:37:19;;;;;;;2.10;1.33;;;;;;;;;;4994855;28;20026;-80
2023/11/12 09:39:44;;;;;;;2.65;1.40;;;;;;;;;;4982282;28;20880;-78
2023/11/12 09:42:12;;;;;;;2.13;1.20;;;;;;;;;;4976224;28;20097;-78
2023/11/12 09:44:41;;;;;;;2.60;1.42;;;;;;;;;;4982651;28;20038;-78
2023/11/12 09:47:06;;;;;;;2.92;1.40;;;;;;;;;;4975688;28;20031;-79
2023/11/12 09:49:32;;;;;;;3.67;1.30;;;;;;;;;;4978677;28;20128;-79
2023/11/12 09:51:57;;;;;;;2.58;1.40;;;;;;;;;;4999332;28;20062;-80
2023/11/12 09:54:23;;;;;;;2.93;1.70;;;;;;;;;;4997174;28;20174;-80
2023/11/12 09:56:49;;;;;;;3.78;1.60;;;;;;;;;;4987206;28;20297;-83
2023/11/12 09:59:14;;;;;;;3.15;1.50;;;;;;;;;;4987413;28;20391;-81
2023/11/12 10:01:39;;;;;;;5.97;1.73;;;;;;;;;;4999915;28;20039;-82
2023/11/12 10:04:05;;;;;;;9.25;2.08;;;;;;;;;;4985901;28;20181;-79
2023/11/12 10:06:31;;;;;;;3.28;1.85;;;;;;;;;;4987376;28;20038;-81
2023/11/12 10:09:00;;;;;;;2.90;1.90;;;;;;;;;;4987982;28;20038;-81
2023/11/12 10:11:28;;;;;;;3.25;1.42;;;;;;;;;;4986880;28;20114;-83
2023/11/12 10:13:56;;;;;;;5.90;2.10;;;;;;;;;;5001777;28;20067;-82
2023/11/12 10:16:31;;;;;;;4.35;1.90;;;;;;;;;;4995674;28;20085;-80
2023/11/12 10:19:13;;;;;;;4.88;2.40;;;;;;;;;;5002271;28;20062;-79
2023/11/12 10:21:58;;;;;;;5.55;3.70;;;;;;;;;;4984854;28;20130;-78
2023/11/12 10:24:23;;;;;;;4.90;3.70;;;;;;;;;;4989041;28;20042;-80
2023/11/12 10:26:50;;;;;;;6.70;3.90;;;;;;;;;;5003766;28;20022;-82
2023/11/12 10:29:19;;;;;;;5.50;3.92;;;;;;;;;;4993017;28;20403;-82
2023/11/12 10:31:44;;;;;;;5.25;3.33;;;;;;;;;;4999582;28;20050;-80
2023/11/12 10:34:10;;;;;;;5.00;3.20;;;;;;;;;;5002835;28;20015;-81
2023/11/12 10:36:35;;;;;;;5.43;3.20;;;;;;;;;;5000992;28;20571;-85
2023/11/12 10:39:11;;;;;;;5.07;3.35;;;;;;;;;;5006858;28;20028;-81
2023/11/12 10:41:44;;;;;;;6.18;3.13;;;;;;;;;;5008407;28;20046;-81
2023/11/12 10:44:10;;;;;;;6.60;3.63;;;;;;;;;;4993024;28;20054;-82
2023/11/12 10:46:38;;;;;;;7.93;3.60;;;;;;;;;;4998697;28;20031;-81
2023/11/12 10:49:04;;;;;;;6.00;3.30;;;;;;;;;;4985520;28;20042;-79
2023/11/12 10:51:29;;;;;;;5.35;3.58;;;;;;;;;;5003152;28;20029;-80
2023/11/12 10:53:57;;;;;;;5.38;3.42;;;;;;;;;;5002007;28;20411;-80
2023/11/12 10:56:22;;;;;;;6.03;3.20;;;;;;;;;;4997249;28;20394;-81
2023/11/12 10:58:51;;;;;;;7.45;3.25;;;;;;;;;;4988785;28;20098;-86
2023/11/12 11:01:17;;;;;;;7.97;3.45;;;;;;;;;;4986601;28;20049;-78
2023/11/12 11:03:42;;;;;;;6.50;3.60;;;;;;;;;;4997031;28;20026;-76
2023/11/12 11:06:07;;;;;;;5.50;3.47;;;;;;;;;;4987578;28;20121;-82
2023/11/12 11:08:34;;;;;;;6.47;2.88;;;;;;;;;;4989778;28;20041;-79
2023/11/12 11:11:01;;;;;;;5.10;2.88;;;;;;;;;;4985206;28;20042;-79
2023/11/12 11:13:28;;;;;;;5.55;2.90;;;;;;;;;;5002734;28;20027;-86
2023/11/12 11:15:58;;;;;;;7.32;3.20;;;;;;;;;;4989111;28;20030;-83
2023/11/12 11:18:32;;;;;;;5.65;2.95;;;;;;;;;;5002433;28;20034;-83
2023/11/12 11:21:16;;;;;;;6.05;3.10;;;;;;;;;;4994790;28;20216;-81
2023/11/12 11:23:54;;;;;;;6.55;3.05;;;;;;;;;;4987594;28;20027;-87
2023/11/12 11:26:27;;;;;;;4.40;3.05;;;;;;;;;;4987775;28;20049;-82
2023/11/12 11:29:04;;;;;;;4.90;2.80;;;;;;;;;;4987170;28;20019;-78
2023/11/12 11:31:53;;;;;;;5.05;2.70;;;;;;;;;;4984228;28;20027;-80
2023/11/12 11:34:19;;;;;;;4.72;2.80;;;;;;;;;;4977726;28;20046;-84
2023/11/12 11:36:58;;;;;;;4.63;2.92;;;;;;;;;;4981576;28;20435;-83
2023/11/12 11:39:28;;;;;;;4.47;2.88;;;;;;;;;;4982515;28;20046;-81
2023/11/12 11:41:54;;;;;;;5.43;2.85;;;;;;;;;;4985235;28;20066;-85
2023/11/12 11:44:33;;;;;;;8.00;4.63;;;;;;;;;;4983969;28;20030;-80
2023/11/12 11:47:13;;;;;;;6.55;3.13;;;;;;;;;;4997342;28;20557;-81
2023/11/12 11:49:39;;;;;;;;;;;;;;;;;;4985172;28;20515;-83
2023/11/12 11:52:05;;;;;;;4.32;2.50;;;;;;;;;;4991578;28;19918;-82
2023/11/12 11:54:31;;;;;;;5.03;2.97;;;;;;;;;;4983780;28;20049;-81
2023/11/12 11:56:57;;;;;;;6.25;2.85;;;;;;;;;;4996491;28;20037;-80
2023/11/12 11:59:24;;;;;;;4.55;2.80;;;;;;;;;;4979864;28;20043;-84
2023/11/12 12:01:52;;;;;;;5.13;2.55;;;;;;;;;;4984437;28;20050;-84
2023/11/12 12:04:17;;;;;;;4.75;2.70;;;;;;;;;;4984894;28;20538;-83
2023/11/12 12:06:45;;;;;;;4.35;2.25;;;;;;;;;;4973509;28;20113;-83
2023/11/12 12:09:17;;;;;;;5.70;2.88;;;;;;;;;;4983671;28;20134;-84
2023/11/12 12:11:46;;;;;;;6.43;2.90;;;;;;;;;;4987482;28;20057;-82
2023/11/12 12:14:12;;;;;;;6.22;3.00;;;;;;;;;;4980930;28;20047;-80
2023/11/12 12:16:41;;;;;;;5.63;2.85;;;;;;;;;;4996675;28;20138;-80
2023/11/12 12:19:08;;;;;;;5.75;2.75;;;;;;;;;;4985315;28;20523;-80
2023/11/12 12:21:34;;;;;;;5.93;3.30;;;;;;;;;;4982786;28;20134;-80
2023/11/12 12:24:00;;;;;;;7.20;2.90;;;;;;;;;;5000848;28;20223;-80
2023/11/12 12:26:28;;;;;;;5.13;2.90;;;;;;;;;;4996196;28;20053;-81
2023/11/12 12:28:54;;;;;;;4.60;2.72;;;;;;;;;;4989975;28;20121;-78
2023/11/12 12:31:20;;;;;;;4.88;2.75;;;;;;;;;;4998398;28;20049;-83
2023/11/12 12:34:01;;;;;;;4.80;3.10;;;;;;;;;;4986035;28;20038;-82
2023/11/12 12:36:26;;;;;;;4.47;2.92;;;;;;;;;;4983005;28;20113;-83
2023/11/12 12:39:03;;;;;;;4.43;2.40;;;;;;;;;;4995217;28;20542;-81
2023/11/12 12:41:29;;;;;;;6.95;2.72;;;;;;;;;;4985649;28;20435;-81
2023/11/12 12:43:56;;;;;;;8.70;2.80;;;;;;;;;;4989846;28;20035;-79
2023/11/12 12:46:22;;;;;;;5.68;2.70;;;;;;;;;;4977919;28;20305;-79
2023/11/12 12:48:54;;;;;;;5.82;2.72;;;;;;;;;;4990211;28;20504;-78
2023/11/12 12:51:21;;;;;;;5.32;3.05;;;;;;;;;;4997064;28;20038;-79
2023/11/12 12:53:48;;;;;;;4.97;2.97;;;;;;;;;;4986489;28;20030;-77
2023/11/12 12:56:13;;;;;;;7.70;3.08;;;;;;;;;;4982644;28;20042;-77
2023/11/12 12:58:39;;;;;;;7.20;3.15;;;;;;;;;;4988936;28;20035;-80
2023/11/12 13:01:05;;;;;;;6.80;2.90;;;;;;;;;;4984678;28;20527;-78
2023/11/12 13:03:30;;;;;;;4.35;2.50;;;;;;;;;;4983344;28;20072;-78
2023/11/12 13:05:57;;;;;;;5.47;2.80;;;;;;;;;;4984333;28;20058;-80
2023/11/12 13:08:28;;;;;;;4.68;2.67;;;;;;;;;;4985766;28;20289;-78
2023/11/12 13:10:54;;;;;;;5.30;2.35;;;;;;;;;;4984736;28;20054;-78
2023/11/12 13:13:21;;;;;;;4.05;2.45;;;;;;;;;;4980604;28;20035;-78
2023/11/12 13:15:47;;;;;;;4.45;2.95;;;;;;;;;;4997808;28;20846;-75
2023/11/12 13:18:12;;;;;;;6.32;2.90;;;;;;;;;;4981568;28;20038;-78
2023/11/12 13:20:38;;;;;;;4.70;2.67;;;;;;;;;;4980851;28;20030;-76
2023/11/12 13:23:03;;;;;;;5.38;3.10;;;;;;;;;;4980887;28;20377;-78
2023/11/12 13:25:29;;;;;;;4.40;2.47;;;;;;;;;;4986313;28;20035;-79
2023/11/12 13:27:54;;;;;;;4.50;2.72;;;;;;;;;;4985151;28;20035;-79
2023/11/12 13:30:21;;;;;;;4.80;2.80;;;;;;;;;;4980029;28;20109;-78
2023/11/12 13:32:46;;;;;;;3.83;2.50;;;;;;;;;;4994305;28;20058;-78
2023/11/12 13:35:12;;;;;;;5.90;2.85;;;;;;;;;;4984626;28;20018;-76
2023/11/12 13:37:38;;;;;;;4.38;2.45;;;;;;;;;;4984610;28;20129;-78
2023/11/12 13:40:13;;;;;;;5.88;2.75;;;;;;;;;;5000578;28;20023;-80
2023/11/12 13:42:40;;;;;;;4.75;2.70;;;;;;;;;;4979054;28;20833;-75
2023/11/12 13:45:05;;;;;;;4.78;2.45;;;;;;;;;;4982446;28;20034;-76
2023/11/12 13:47:30;;;;;;;4.22;2.65;;;;;;;;;;4981976;28;20025;-78
2023/11/12 13:49:56;;;;;;;5.18;2.90;;;;;;;;;;4993929;28;20043;-78
2023/11/12 13:52:22;;;;;;;4.60;2.80;;;;;;;;;;4980285;28;20039;-78
2023/11/12 13:54:52;;;;;;;3.60;2.33;;;;;;;;;;4979682;28;20285;-79
2023/11/12 13:57:17;;;;;;;;;;;;;;;;;;4996449;28;20034;-79
2023/11/12 13:59:42;;;;;;;4.57;2.75;;;;;;;;;;4979459;28;19929;-80
2023/11/12 14:02:10;;;;;;;4.15;2.60;;;;;;;;;;4997130;28;20076;-78
2023/11/12 14:04:36;;;;;;;3.88;2.47;;;;;;;;;;4985171;28;20541;-79
2023/11/12 14:07:04;;;;;;;3.60;2.42;;;;;;;;;;4985465;28;20039;-80
2023/11/12 14:09:32;;;;;;;4.07;2.78;;;;;;;;;;4981488;28;20038;-79
2023/11/12 14:11:58;;;;;;;6.18;2.83;;;;;;;;;;4986346;28;20038;-80
2023/11/12 14:14:24;;;;;;;5.10;2.50;;;;;;;;;;4981881;28;20045;-81
2023/11/12 14:16:51;;;;;;;3.88;2.70;;;;;;;;;;4981231;28;20034;-80
2023/11/12 14:19:18;;;;;;;5.25;2.25;;;;;;;;;;4978250;28;20057;-79
2023/11/12 14:21:45;;;;;;;2.95;1.65;;;;;;;;;;4981048;28;20049;-79
2023/11/12 14:24:13;;;;;;;4.80;1.33;;;;;;;;;;4992452;28;20038;-83
2023/11/12 14:26:43;;;;;;;3.75;1.45;;;;;;;;;;4985936;28;20057;-79
2023/11/12 14:29:10;;;;;;;2.60;1.80;;;;;;;;;;4988831;28;20046;-82
2023/11/12 14:31:37;;;;;;;3.90;2.05;;;;;;;;;;4982703;28;20439;-77
2023/11/12 14:34:03;;;;;;;2.80;1.77;;;;;;;;;;4981138;28;20046;-79
2023/11/12 14:36:29;;;;;;;5.13;2.20;;;;;;;;;;4981677;28;20035;-79
2023/11/12 14:38:54;;;;;;;3.40;1.80;;;;;;;;;;4980657;28;20124;-80
2023/11/12 14:41:19;;;;;;;3.90;1.98;;;;;;;;;;4985757;28;20135;-80
2023/11/12 14:43:45;;;;;;;4.25;1.70;;;;;;;;;;4983439;28;20108;-78
2023/11/12 14:46:19;;;;;;;4.60;1.95;;;;;;;;;;4980374;28;20058;-82